M I D A S
Marine Information and Data Acquisition System
Tripno 934 of the Zeeleeuw from 2005-08-24 05:00:00 to 2005-08-24 13:30:53
Back to CruiseResearch ActivitiesStationsMapUnderway DataData graphs

EquipmentUnitsComments
TimeDGPSUTC
LatitudeDGPSDM.mWGS84
LongitudeDGPSDM.mWGS84
SpeedMeteo Stationm/sRelative wind speed
DirectionMeteo StationdegRelative wind direction
TemperatureMeteo Stationdeg CelciusAir temperature
PressureMeteo StationPaAtmospheric pressure
HumidityMeteo Station%Relative humidity
Missing or incorrect values are displayed as -999
Metereological data collected by the RV Zeeleeuw from 2005-08-24 05:00:00 to 2005-08-24 13:34:21
Time Latitude Longitude Speed Direction Temperature Pressure Humidity
2005-08-24 05:53 51°13.599 2°56.096 1.7 63 12.7 101400 99
2005-08-24 05:54 51°13.595 2°56.1 3.1 33 12.7 101400 99
2005-08-24 05:55 51°13.597 2°56.099 2.3 56 12.7 101400 99
2005-08-24 05:56 51°13.597 2°56.099 2.8 59 12.7 101400 99
2005-08-24 05:57 51°13.597 2°56.099 3.9 54 12.8 101400 99
2005-08-24 05:58 51°13.597 2°56.098 2.5 61 12.8 101400 98
2005-08-24 05:59 51°13.599 2°56.099 3.2 58 12.8 101390 98
2005-08-24 06:00 51°13.599 2°56.098 2.7 92 12.8 101390 98
2005-08-24 06:01 51°13.599 2°56.098 1.7 63 12.8 101390 98
2005-08-24 06:02 51°13.598 2°56.097 2.5 76 12.8 101380 98
2005-08-24 06:03 51°13.598 2°56.097 2.7 84 12.9 101380 98
2005-08-24 06:04 51°13.598 2°56.096 2.6 76 12.8 101390 98
2005-08-24 06:05 51°13.599 2°56.096 2.3 33 12.9 -999 98
2005-08-24 06:06 51°13.597 2°56.097 3.9 61 12.9 101380 98
2005-08-24 06:07 51°13.597 2°56.096 2.2 95 12.9 101380 98
2005-08-24 06:08 51°13.597 2°56.097 1.7 86 12.9 101380 98
2005-08-24 06:09 51°13.596 2°56.097 3.6 65 13 101380 98
2005-08-24 06:10 51°13.597 2°56.097 1.6 77 13 101380 98
2005-08-24 06:11 51°13.597 2°56.096 3.3 54 13 101390 98
2005-08-24 06:12 51°13.597 2°56.096 2.4 64 13.1 101380 98
2005-08-24 06:13 51°13.598 2°56.096 3.2 93 13.1 101390 98
2005-08-24 06:14 51°13.599 2°56.096 1.7 100 13.1 101390 98
2005-08-24 06:15 51°13.598 2°56.097 2.1 69 13.2 101390 98
2005-08-24 06:16 51°13.597 2°56.096 2.8 95 13.2 101390 97
2005-08-24 06:17 51°13.595 2°56.098 2.6 101 13.2 101380 97
2005-08-24 06:18 51°13.596 2°56.097 3.9 96 13.2 101390 97
2005-08-24 06:19 51°13.597 2°56.097 3.3 92 13.3 101380 97
2005-08-24 06:20 51°13.597 2°56.098 2.5 130 13.2 101380 97
2005-08-24 06:21 51°13.597 2°56.097 1.7 60 13.3 101380 97
2005-08-24 06:22 51°13.598 2°56.096 2.7 115 13.3 101390 97
2005-08-24 06:23 51°13.597 2°56.095 2 68 13.4 101390 97
2005-08-24 06:24 51°13.597 2°56.097 4.3 80 13.4 101390 97
2005-08-24 06:25 51°13.599 2°56.096 2.8 83 13.4 101390 97
2005-08-24 06:26 51°13.601 2°56.096 3.6 86 13.4 101390 97
2005-08-24 06:27 51°13.6 2°56.096 1.8 101 13.5 101390 97
2005-08-24 06:28 51°13.599 2°56.096 2.2 56 13.5 101390 97
2005-08-24 06:29 51°13.599 2°56.097 4.4 128 13.6 101390 96
2005-08-24 06:30 51°13.596 2°56.095 4.1 87 13.6 101390 96
2005-08-24 06:31 51°13.596 2°56.095 1.8 15 13.6 101390 96
2005-08-24 06:32 51°13.598 2°56.08 1.4 119 13.6 101390 96
2005-08-24 06:33 51°13.63 2°55.975 3.2 146 13.7 101390 96
2005-08-24 06:34 51°13.669 2°55.861 3.2 167 13.7 101400 96
2005-08-24 06:35 51°13.683 2°55.763 4.3 137 13.8 101390 96
2005-08-24 06:36 51°13.693 2°55.749 1.2 177 13.8 101390 95
2005-08-24 06:37 51°13.761 2°55.705 0.8 354 13.8 101390 95
2005-08-24 06:38 51°13.884 2°55.595 1.2 331 13.9 101390 96
2005-08-24 06:39 51°14.034 2°55.484 3 318 13.9 101390 95
2005-08-24 06:40 51°14.193 2°55.353 2.5 306 14 101390 95
2005-08-24 06:41 51°14.326 2°55.138 4.5 319 14 101370 95
2005-08-24 06:42 51°14.458 2°54.877 6.2 290 14 101370 95
2005-08-24 06:43 51°14.629 2°54.677 6.3 279 14.1 101370 95
2005-08-24 06:44 51°14.801 2°54.48 5.2 302 14.2 101370 95
2005-08-24 06:45 51°14.99 2°54.285 6.3 301 14.3 101360 95
2005-08-24 06:46 51°15.186 2°54.103 7.5 293 14.4 101370 94
2005-08-24 06:47 51°15.383 2°53.91 7.2 295 14.4 101360 94
2005-08-24 06:48 51°15.566 2°53.729 8 292 14.4 101360 94
2005-08-24 06:49 51°15.77 2°53.55 6.6 284 14.4 101360 94
2005-08-24 06:50 51°15.974 2°53.393 7.5 290 14.5 101360 94
2005-08-24 06:51 51°16.184 2°53.24 7 278 14.5 101360 94
2005-08-24 06:52 51°16.394 2°53.093 6.5 281 14.5 101360 94
2005-08-24 06:53 51°16.6 2°52.94 6.8 282 14.5 101340 94
2005-08-24 06:54 51°16.798 2°52.798 6.7 271 14.6 101340 94
2005-08-24 06:55 51°17.009 2°52.643 6.8 279 14.7 101350 94
2005-08-24 06:56 51°17.209 2°52.494 6.4 274 14.7 101350 94
2005-08-24 06:57 51°17.411 2°52.309 9.7 299 14.7 101340 94
2005-08-24 06:58 51°17.546 2°52.028 9.5 301 14.8 101330 94
2005-08-24 06:59 51°17.661 2°51.71 8.8 300 14.8 101320 93
2005-08-24 07:00 51°17.77 2°51.392 9.5 305 14.9 101320 94
2005-08-24 07:01 51°17.879 2°51.071 10.6 303 15 101320 94
2005-08-24 07:02 51°17.981 2°50.753 11.9 314 15 101310 93
2005-08-24 07:03 51°18.078 2°50.419 11.2 309 15 101310 93
2005-08-24 07:04 51°18.173 2°50.091 12 229 15.1 101320 94
2005-08-24 07:05 51°18.269 2°49.763 11.8 314 15.2 101320 93
2005-08-24 07:06 51°18.363 2°49.441 12.4 309 15.2 101320 93
2005-08-24 07:07 51°18.458 2°49.119 11.3 314 15.2 101330 93
2005-08-24 07:08 51°18.555 2°48.786 12.6 228 15.3 101320 93
2005-08-24 07:09 51°18.651 2°48.445 13.1 310 15.3 101320 92
2005-08-24 07:10 51°18.744 2°48.112 12.1 308 15.3 101330 93
2005-08-24 07:11 51°18.837 2°47.786 14.2 228 15.4 101320 93
2005-08-24 07:12 51°18.933 2°47.451 13 314 15.4 101310 92
2005-08-24 07:13 51°19.025 2°47.134 13.8 309 15.5 101320 92
2005-08-24 07:14 51°19.122 2°46.794 12.7 315 15.5 101320 92
2005-08-24 07:15 51°19.218 2°46.469 12.4 313 15.5 101320 92
2005-08-24 07:16 51°19.32 2°46.134 12.5 311 15.5 101320 92
2005-08-24 07:17 51°19.421 2°45.809 14.3 312 15.6 101310 92
2005-08-24 07:18 51°19.515 2°45.486 15.2 314 15.6 101320 92
2005-08-24 07:19 51°19.613 2°45.15 14.5 318 15.7 101320 92
2005-08-24 07:20 51°19.706 2°44.832 15.5 313 15.7 101320 91
2005-08-24 07:21 51°19.801 2°44.494 14.4 315 15.7 101310 91
2005-08-24 07:22 51°19.882 2°44.161 15.3 229 15.8 101320 91
2005-08-24 07:23 51°19.965 2°43.833 15.7 317 15.8 101310 92
2005-08-24 07:24 51°20.051 2°43.49 15.7 41 15.7 101320 91
2005-08-24 07:25 51°20.136 2°43.153 15.2 318 15.7 101310 91
2005-08-24 07:26 51°20.225 2°42.816 13.3 313 15.7 101310 91
2005-08-24 07:27 51°20.314 2°42.482 15.5 314 15.8 101320 92
2005-08-24 07:28 51°20.403 2°42.156 13.3 40 15.8 101310 92
2005-08-24 07:29 51°20.482 2°41.824 12.6 319 15.8 101310 92
2005-08-24 07:30 51°20.571 2°41.472 15.3 318 15.8 101310 92
2005-08-24 07:31 51°20.644 2°41.132 16 319 15.8 101320 92
2005-08-24 07:32 51°20.692 2°40.78 14.6 318 15.8 101300 92
2005-08-24 07:33 51°20.719 2°40.422 14.1 327 15.9 101290 92
2005-08-24 07:34 51°20.737 2°40.064 16.4 329 15.8 101290 91
2005-08-24 07:35 51°20.754 2°39.705 15.1 327 15.8 101290 91
2005-08-24 07:36 51°20.771 2°39.35 14.7 320 15.8 101290 91
2005-08-24 07:37 51°20.789 2°38.989 15 317 15.8 101280 91
2005-08-24 07:38 51°20.805 2°38.63 14.6 318 15.8 101270 92
2005-08-24 07:39 51°20.824 2°38.258 15.3 327 15.8 101270 92
2005-08-24 07:40 51°20.841 2°37.901 15.5 327 15.9 101260 91
2005-08-24 07:41 51°20.861 2°37.533 15.1 321 15.8 101250 91
2005-08-24 07:42 51°20.88 2°37.168 14.6 326 15.9 101250 91
2005-08-24 07:43 51°20.9 2°36.802 15.8 323 15.9 101250 91
2005-08-24 07:44 51°20.92 2°36.439 16.8 322 15.8 101240 90
2005-08-24 07:45 51°20.941 2°36.073 15.1 320 15.9 101240 91
2005-08-24 07:46 51°20.961 2°35.707 13.1 323 16 101250 91
2005-08-24 07:47 51°20.984 2°35.342 14.6 327 16 101250 91
2005-08-24 07:48 51°21.006 2°34.974 15.2 43 16.1 101250 91
2005-08-24 07:49 51°21.028 2°34.608 14.2 319 16.1 101240 91
2005-08-24 07:50 51°21.048 2°34.251 14.5 325 16.1 101250 91
2005-08-24 07:51 51°21.067 2°33.883 16.4 324 16.2 101250 91
2005-08-24 07:52 51°21.086 2°33.53 15.6 319 16.2 101240 90
2005-08-24 07:53 51°21.129 2°33.176 14.2 307 16.2 101240 89
2005-08-24 07:54 51°21.321 2°33.033 4.9 254 16.3 101280 89
2005-08-24 07:55 51°21.546 2°33.012 5.4 253 16.3 101290 89
2005-08-24 07:56 51°21.782 2°32.988 5.1 249 16.4 101300 88
2005-08-24 07:57 51°22.013 2°32.97 4 266 16.4 101290 88
2005-08-24 07:58 51°22.237 2°32.947 4.3 259 16.5 101290 88
2005-08-24 07:59 51°22.46 2°32.917 5.5 251 16.4 101290 87
2005-08-24 08:00 51°22.68 2°32.891 5.5 259 16.4 101300 87
2005-08-24 08:01 51°22.853 2°32.716 15.6 308 16.5 101280 87
2005-08-24 08:02 51°22.878 2°32.359 15.9 323 16.5 101230 87
2005-08-24 08:03 51°22.885 2°31.99 16.8 325 16.5 101230 87
2005-08-24 08:04 51°22.886 2°31.628 16.7 325 16.5 101220 87
2005-08-24 08:05 51°22.887 2°31.254 15.5 328 16.5 101220 87
2005-08-24 08:06 51°22.881 2°30.885 16 322 16.5 101210 88
2005-08-24 08:07 51°22.869 2°30.518 16.1 327 16.5 101220 88
2005-08-24 08:08 51°22.86 2°30.152 15.4 323 16.5 101220 88
2005-08-24 08:09 51°22.848 2°29.782 16 327 16.5 101220 89
2005-08-24 08:10 51°22.835 2°29.413 15.3 321 16.4 101210 89
2005-08-24 08:11 51°22.818 2°29.045 15.7 332 16.4 101200 89
2005-08-24 08:12 51°22.803 2°28.692 16.9 327 16.4 101200 89
2005-08-24 08:13 51°22.788 2°28.309 16 334 16.4 101200 89
2005-08-24 08:14 51°22.773 2°27.96 15.8 327 16.4 101190 89
2005-08-24 08:15 51°22.752 2°27.589 15.5 335 16.4 101180 89
2005-08-24 08:16 51°22.732 2°27.239 16.4 333 16.4 101190 88
2005-08-24 08:17 51°22.712 2°26.858 15.9 327 16.4 101180 88
2005-08-24 08:18 51°22.694 2°26.498 15.6 326 16.4 101170 88
2005-08-24 08:19 51°22.676 2°26.127 17.3 318 16.4 101170 88
2005-08-24 08:20 51°22.745 2°25.788 12.4 302 16.4 101180 89
2005-08-24 08:21 51°22.915 2°25.533 10.2 271 16.5 101210 89
2005-08-24 08:22 51°23.137 2°25.47 4 250 16.4 101220 88
2005-08-24 08:23 51°23.364 2°25.46 3.5 249 16.5 101220 89
2005-08-24 08:24 51°23.583 2°25.5 4.1 223 16.5 101230 88
2005-08-24 08:25 51°23.8 2°25.554 4.1 222 16.4 101220 88
2005-08-24 08:26 51°24.024 2°25.606 3.5 215 16.4 101220 88
2005-08-24 08:27 51°24.239 2°25.669 2.2 225 16.5 101230 89
2005-08-24 08:28 51°24.455 2°25.717 3.5 218 16.5 101230 88
2005-08-24 08:29 51°24.682 2°25.78 4.4 207 16.6 101230 88
2005-08-24 08:30 51°24.901 2°25.843 4.2 240 16.5 101230 87
2005-08-24 08:31 51°25.118 2°25.893 3.5 207 16.5 101230 87
2005-08-24 08:32 51°25.34 2°25.958 4 211 16.5 101220 87
2005-08-24 08:33 51°25.559 2°26.01 2.2 221 16.5 101220 87
2005-08-24 08:34 51°25.772 2°26.067 3.4 208 16.5 101220 87
2005-08-24 08:35 51°25.99 2°26.132 3.5 180 16.6 101230 88
2005-08-24 08:36 51°26.204 2°26.196 3.7 222 16.6 101230 86
2005-08-24 08:37 51°26.429 2°26.251 2 229 16.5 101240 86
2005-08-24 08:38 51°26.647 2°26.314 2 209 16.6 101240 87
2005-08-24 08:39 51°26.864 2°26.377 2.5 174 16.6 101230 87
2005-08-24 08:40 51°27.08 2°26.445 2.2 222 16.7 101230 88
2005-08-24 08:41 51°27.296 2°26.511 3 218 16.7 101220 88
2005-08-24 08:42 51°27.513 2°26.585 3.1 208 16.7 101230 87
2005-08-24 08:43 51°27.73 2°26.657 2.2 186 16.6 101230 87
2005-08-24 08:44 51°27.946 2°26.729 3.9 199 16.6 101230 87
2005-08-24 08:45 51°28.162 2°26.801 4.1 207 16.5 101230 88
2005-08-24 08:46 51°28.376 2°26.862 2.6 206 16.5 101240 88
2005-08-24 08:47 51°28.586 2°26.93 4.2 210 16.5 101240 88
2005-08-24 08:48 51°28.794 2°26.916 7.9 271 16.4 101240 88
2005-08-24 08:49 51°28.943 2°26.648 15.5 304 16.5 101210 89
2005-08-24 08:50 51°29.028 2°26.314 16.1 312 16.6 101170 89
2005-08-24 08:51 51°29.091 2°25.968 15.1 319 16.6 101160 88
2005-08-24 08:52 51°29.156 2°25.622 16.3 321 16.6 101170 87
2005-08-24 08:53 51°29.214 2°25.275 15.4 313 16.6 101160 86
2005-08-24 08:54 51°29.271 2°24.929 14.9 318 16.7 101170 86
2005-08-24 08:55 51°29.329 2°24.575 16.6 307 16.8 101150 86
2005-08-24 08:56 51°29.385 2°24.227 16.1 309 16.8 101150 86
2005-08-24 08:57 51°29.509 2°23.931 10.9 286 16.8 101170 85
2005-08-24 08:58 51°29.699 2°23.778 4.5 251 16.9 101200 85
2005-08-24 08:59 51°29.893 2°23.86 5.5 164 16.9 101200 86
2005-08-24 09:00 51°30.07 2°24.048 6 145 16.9 101200 85
2005-08-24 09:01 51°30.243 2°24.233 5.1 148 16.9 101190 85
2005-08-24 09:02 51°30.421 2°24.41 4.5 157 16.9 101190 85
2005-08-24 09:03 51°30.604 2°24.582 3.9 165 16.8 101190 85
2005-08-24 09:04 51°30.788 2°24.756 5.6 150 16.9 101190 86
2005-08-24 09:05 51°30.971 2°24.925 4.9 182 16.8 101180 85
2005-08-24 09:06 51°31.145 2°25.086 2.9 182 16.8 101180 85
2005-08-24 09:07 51°31.323 2°25.249 3.8 138 16.9 101180 86
2005-08-24 09:08 51°31.5 2°25.42 2.7 161 16.9 101180 86
2005-08-24 09:09 51°31.681 2°25.607 4.1 141 16.9 101180 86
2005-08-24 09:10 51°31.865 2°25.787 2.2 147 16.8 101180 84
2005-08-24 09:11 51°32.04 2°25.947 5.6 134 16.9 101170 85
2005-08-24 09:12 51°32.217 2°26.14 6 137 16.9 101180 84
2005-08-24 09:13 51°32.387 2°26.337 5.4 139 17 101170 84
2005-08-24 09:14 51°32.554 2°26.526 6.3 155 16.9 101180 84
2005-08-24 09:15 51°32.724 2°26.729 4.5 157 16.9 101180 84
2005-08-24 09:16 51°32.889 2°26.929 3.4 146 16.8 101180 84
2005-08-24 09:17 51°33.052 2°27.128 5.5 149 16.9 101180 84
2005-08-24 09:18 51°33.223 2°27.315 3.9 172 16.8 101180 84
2005-08-24 09:19 51°33.393 2°27.489 2.9 165 16.8 101180 83
2005-08-24 09:20 51°33.571 2°27.682 4.9 165 16.8 101180 85
2005-08-24 09:21 51°33.745 2°27.874 6 174 16.9 101170 85
2005-08-24 09:22 51°33.921 2°28.052 4.3 167 16.8 101170 83
2005-08-24 09:23 51°34.095 2°28.23 4.9 168 16.9 101170 85
2005-08-24 09:24 51°34.271 2°28.404 5.1 166 16.8 101180 84
2005-08-24 09:25 51°34.44 2°28.586 4.6 165 16.8 101180 83
2005-08-24 09:26 51°34.608 2°28.766 4.4 181 16.7 101180 83
2005-08-24 09:27 51°34.783 2°28.943 4.3 181 17 101170 84
2005-08-24 09:28 51°34.957 2°29.11 2.8 178 17.2 101170 81
2005-08-24 09:29 51°35.139 2°29.299 3.2 190 17.3 101160 81
2005-08-24 09:30 51°35.315 2°29.478 2.6 197 17.5 101160 81
2005-08-24 09:31 51°35.484 2°29.667 4.3 175 17.4 101160 80
2005-08-24 09:32 51°35.655 2°29.846 4 160 17.2 101160 80
2005-08-24 09:33 51°35.831 2°30.028 5.6 151 17.1 101160 81
2005-08-24 09:34 51°36.007 2°30.203 2.8 178 17 101170 81
2005-08-24 09:35 51°36.179 2°30.382 5.1 164 16.9 101160 82
2005-08-24 09:36 51°36.349 2°30.564 4.9 150 16.9 101160 82
2005-08-24 09:37 51°36.52 2°30.745 5.3 169 16.8 101160 83
2005-08-24 09:38 51°36.696 2°30.917 2.9 174 16.8 101160 82
2005-08-24 09:39 51°36.876 2°31.09 2.4 145 17 101160 83
2005-08-24 09:40 51°37.054 2°31.271 3.5 178 17.1 101160 83
2005-08-24 09:41 51°37.23 2°31.449 4.6 166 17.2 101160 80
2005-08-24 09:42 51°37.405 2°31.628 2.6 188 17.3 101160 80
2005-08-24 09:43 51°37.578 2°31.796 2.5 177 17.3 101150 81
2005-08-24 09:44 51°37.755 2°31.964 3 183 17.3 101150 81
2005-08-24 09:45 51°37.925 2°32.133 1.5 168 17.3 101150 82
2005-08-24 09:46 51°38.093 2°32.302 2.8 202 17.3 101150 83
2005-08-24 09:47 51°38.268 2°32.477 4.9 198 17.4 101150 84
2005-08-24 09:48 51°38.442 2°32.652 3.1 205 17.6 101140 82
2005-08-24 09:49 51°38.622 2°32.82 4.1 188 17.9 101140 81
2005-08-24 09:50 51°38.792 2°32.991 4.7 171 17.9 101140 77
2005-08-24 09:51 51°38.964 2°33.166 4 189 17.7 101140 77
2005-08-24 09:52 51°39.137 2°33.336 4.9 175 17.9 101140 77
2005-08-24 09:53 51°39.306 2°33.505 7.1 172 17.9 101130 75
2005-08-24 09:54 51°39.477 2°33.675 3.2 152 17.6 101140 75
2005-08-24 09:55 51°39.648 2°33.842 4.4 166 17.5 101130 76
2005-08-24 09:56 51°39.818 2°34.015 5 161 17.5 101130 76
2005-08-24 09:57 51°39.985 2°34.188 6.6 166 17.4 101120 77
2005-08-24 09:58 51°40.152 2°34.355 5.6 165 17.3 101120 77
2005-08-24 09:59 51°40.311 2°34.515 8.2 162 17.2 101120 79
2005-08-24 10:00 51°40.485 2°34.684 7.6 164 17.1 101120 79
2005-08-24 10:01 51°40.65 2°34.846 5.1 193 17.1 101120 79
2005-08-24 10:02 51°40.829 2°35.024 4.9 179 17.3 101110 79
2005-08-24 10:03 51°41.002 2°35.19 4.9 167 17.3 101110 79
2005-08-24 10:04 51°41.17 2°35.353 3.5 187 17.6 101110 78
2005-08-24 10:05 51°41.273 2°35.617 10 115 17.6 101100 76
2005-08-24 10:06 51°41.229 2°35.91 15.3 81 17.4 101070 78
2005-08-24 10:07 51°41.137 2°36.22 13.1 80 17.2 101060 80
2005-08-24 10:08 51°41.049 2°36.523 11.9 80 17.1 101060 80
2005-08-24 10:09 51°40.961 2°36.826 11.5 81 17 101060 81
2005-08-24 10:10 51°40.863 2°37.134 13.7 72 16.9 101070 82
2005-08-24 10:11 51°40.765 2°37.436 12.3 76 16.8 101040 82
2005-08-24 10:12 51°40.669 2°37.735 14.7 79 16.9 101040 83
2005-08-24 10:13 51°40.56 2°38.044 13.7 79 16.8 101060 84
2005-08-24 10:14 51°40.462 2°38.337 12 76 16.8 101050 83
2005-08-24 10:15 51°40.355 2°38.641 11.7 75 16.8 101060 84
2005-08-24 10:16 51°40.254 2°38.939 12.1 78 16.8 101060 83
2005-08-24 10:17 51°40.146 2°39.24 11 79 16.8 101060 83
2005-08-24 10:18 51°40.044 2°39.536 11.1 80 16.8 101060 84
2005-08-24 10:19 51°39.938 2°39.835 13.3 80 16.8 101070 84
2005-08-24 10:20 51°39.834 2°40.129 14.2 82 16.8 101050 83
2005-08-24 10:21 51°39.728 2°40.425 13.6 77 16.7 101060 83
2005-08-24 10:22 51°39.624 2°40.73 13.2 81 16.8 101050 83
2005-08-24 10:23 51°39.52 2°41.022 14.5 80 16.8 101070 84
2005-08-24 10:24 51°39.412 2°41.314 15.1 82 16.8 101060 84
2005-08-24 10:25 51°39.316 2°41.6 15.8 82 16.8 101080 85
2005-08-24 10:26 51°39.213 2°41.903 15.6 85 16.8 101070 84
2005-08-24 10:27 51°39.03 2°42.069 18.7 35 16.8 101040 83
2005-08-24 10:28 51°38.802 2°42.082 17.6 31 16.8 101050 84
2005-08-24 10:29 51°38.573 2°42.085 20.2 27 16.8 101050 85
2005-08-24 10:30 51°38.34 2°42.086 19.6 26 16.8 101050 84
2005-08-24 10:31 51°38.107 2°42.085 20.1 28 16.8 101050 83
2005-08-24 10:32 51°37.874 2°42.084 19.4 25 16.8 101060 83
2005-08-24 10:33 51°37.648 2°42.085 19.3 33 16.8 101080 83
2005-08-24 10:34 51°37.424 2°42.037 18.2 12 16.9 101090 84
2005-08-24 10:35 51°37.247 2°41.773 19.8 338 16.9 101060 83
2005-08-24 10:36 51°37.208 2°41.414 13.3 317 16.8 101040 82
2005-08-24 10:37 51°37.246 2°41.056 14.1 307 16.9 101050 82
2005-08-24 10:38 51°37.29 2°40.685 17.6 317 16.9 101040 83
2005-08-24 10:39 51°37.329 2°40.316 16.7 306 16.9 101030 83
2005-08-24 10:40 51°37.365 2°39.956 16.2 225 16.9 101030 83
2005-08-24 10:41 51°37.395 2°39.591 15.3 226 17 101050 83
2005-08-24 10:42 51°37.425 2°39.226 17.6 313 17 101020 83
2005-08-24 10:43 51°37.452 2°38.876 16 313 17 101030 83
2005-08-24 10:44 51°37.476 2°38.502 19.3 318 17 101030 82
2005-08-24 10:45 51°37.5 2°38.144 16.6 316 17 101010 82
2005-08-24 10:46 51°37.523 2°37.796 18 322 17 101030 83
2005-08-24 10:47 51°37.549 2°37.434 19.7 321 17.1 101040 83
2005-08-24 10:48 51°37.57 2°37.076 20.3 323 17 101010 80
2005-08-24 10:49 51°37.592 2°36.711 20.4 324 17.1 100990 80
2005-08-24 10:50 51°37.615 2°36.351 21.5 319 17.1 100970 79
2005-08-24 10:51 51°37.642 2°36.012 18.8 318 17.1 101020 78
2005-08-24 10:52 51°37.664 2°35.646 18.7 326 17.1 100990 78
2005-08-24 10:53 51°37.688 2°35.289 20.2 321 17.2 100990 78
2005-08-24 10:54 51°37.716 2°34.932 18.4 40 17.2 100970 78
2005-08-24 10:55 51°37.743 2°34.571 16.9 324 17.2 100980 77
2005-08-24 10:56 51°37.752 2°34.189 19.4 335 17.2 100970 78
2005-08-24 10:57 51°37.623 2°33.891 22.4 6 17.2 101010 78
2005-08-24 10:58 51°37.419 2°33.735 20.9 24 17.2 101040 78
2005-08-24 10:59 51°37.198 2°33.626 20 22 17.2 101030 78
2005-08-24 11:00 51°36.977 2°33.517 21.6 17 17.1 101010 79
2005-08-24 11:01 51°36.756 2°33.408 19.5 13 17 101020 77
2005-08-24 11:02 51°36.536 2°33.302 20.7 20 17 101010 78
2005-08-24 11:03 51°36.319 2°33.195 24.2 22 16.9 101010 78
2005-08-24 11:04 51°36.097 2°33.085 20.5 21 16.9 101020 76
2005-08-24 11:05 51°35.879 2°32.976 20.5 13 17 101000 78
2005-08-24 11:06 51°35.665 2°32.868 19.8 16 16.9 101030 79
2005-08-24 11:07 51°35.448 2°32.757 21.8 17 16.7 101010 79
2005-08-24 11:08 51°35.225 2°32.639 20.7 20 16.8 101010 78
2005-08-24 11:09 51°35.004 2°32.525 24 18 16.8 100980 77
2005-08-24 11:10 51°34.786 2°32.412 19.8 23 16.9 101000 76
2005-08-24 11:11 51°34.567 2°32.297 22.2 13 16.9 101000 75
2005-08-24 11:12 51°34.345 2°32.175 19 19 17 100990 76
2005-08-24 11:13 51°34.126 2°32.058 21.5 12 17 100990 76
2005-08-24 11:14 51°33.906 2°31.941 20.4 24 16.9 101000 77
2005-08-24 11:15 51°33.687 2°31.82 20.9 17 17 101010 75
2005-08-24 11:16 51°33.466 2°31.699 22.7 17 17 101000 73
2005-08-24 11:17 51°33.252 2°31.589 20.2 18 17.1 100980 74
2005-08-24 11:18 51°33.031 2°31.468 20.1 23 17.1 101020 76
2005-08-24 11:19 51°32.814 2°31.358 20.9 13 17.1 101020 75
2005-08-24 11:20 51°32.59 2°31.236 21.9 18 17.1 101010 74
2005-08-24 11:21 51°32.369 2°31.114 20.5 14 17 101010 77
2005-08-24 11:22 51°32.145 2°30.991 22 15 16.9 100990 75
2005-08-24 11:23 51°31.924 2°30.924 21.7 38 16.9 100980 74
2005-08-24 11:24 51°31.708 2°31.039 20.9 52 17.1 100980 73
2005-08-24 11:25 51°31.518 2°31.211 19.9 54 17.1 100940 72
2005-08-24 11:26 51°31.326 2°31.389 19.4 51 17.3 100960 73
2005-08-24 11:27 51°31.135 2°31.573 19.4 49 17.3 100970 73
2005-08-24 11:28 51°30.953 2°31.758 16.6 63 17.3 100960 72
2005-08-24 11:29 51°30.775 2°31.953 20.8 62 17.3 100960 72
2005-08-24 11:30 51°30.597 2°32.158 18.6 58 17.4 100970 73
2005-08-24 11:31 51°30.419 2°32.359 20.5 63 17.3 100950 71
2005-08-24 11:32 51°30.245 2°32.559 17.3 60 17.3 100940 69
2005-08-24 11:33 51°30.068 2°32.758 18.8 58 17.4 100980 71
2005-08-24 11:34 51°29.897 2°32.96 15.3 71 17.3 100960 70
2005-08-24 11:35 51°29.814 2°33.256 15.4 92 17.3 101000 71
2005-08-24 11:36 51°29.798 2°33.562 13.9 100 17.3 101020 70
2005-08-24 11:37 51°29.784 2°33.871 11.3 101 17.3 101020 69
2005-08-24 11:38 51°29.766 2°34.18 13.1 100 17.3 101010 70
2005-08-24 11:39 51°29.744 2°34.505 14 110 17.4 101020 70
2005-08-24 11:40 51°29.719 2°34.823 14.4 90 17.4 101030 71
2005-08-24 11:41 51°29.698 2°35.141 13.4 99 17.4 101010 70
2005-08-24 11:42 51°29.687 2°35.466 11.8 103 17.4 101020 68
2005-08-24 11:43 51°29.677 2°35.793 13.9 104 17.4 101020 68
2005-08-24 11:44 51°29.669 2°36.112 12.4 113 17.4 101010 69
2005-08-24 11:45 51°29.664 2°36.433 13.4 101 17.5 101030 70
2005-08-24 11:46 51°29.655 2°36.749 12.8 109 17.4 101020 69
2005-08-24 11:47 51°29.64 2°37.055 9.3 107 17.5 101030 70
2005-08-24 11:48 51°29.63 2°37.362 12.1 112 17.5 101030 71
2005-08-24 11:49 51°29.611 2°37.676 9 103 17.5 101030 69
2005-08-24 11:50 51°29.593 2°37.996 10.7 113 17.5 101030 70
2005-08-24 11:51 51°29.483 2°38.262 18.3 59 17.5 101010 70
2005-08-24 11:52 51°29.276 2°38.369 21.3 35 17.5 100970 69
2005-08-24 11:53 51°29.048 2°38.427 17.2 35 17.5 100960 71
2005-08-24 11:54 51°28.83 2°38.517 19.7 43 17.5 100960 70
2005-08-24 11:55 51°28.61 2°38.616 19.3 42 17.5 100980 71
2005-08-24 11:56 51°28.392 2°38.71 19 50 17.4 100950 68
2005-08-24 11:57 51°28.174 2°38.811 19.2 41 17.4 100970 69
2005-08-24 11:58 51°27.952 2°38.91 19.7 41 17.4 100970 68
2005-08-24 11:59 51°27.733 2°38.999 20 43 17.4 100970 69
2005-08-24 12:00 51°27.513 2°39.092 21.3 49 17.4 100960 69
2005-08-24 12:01 51°27.295 2°39.188 18.6 36 17.4 100980 70
2005-08-24 12:02 51°27.075 2°39.273 19.8 33 17.4 100960 70
2005-08-24 12:03 51°26.857 2°39.354 19.1 45 17.4 100960 70
2005-08-24 12:04 51°26.634 2°39.437 20 44 17.4 100970 70
2005-08-24 12:05 51°26.424 2°39.519 18 42 17.4 100970 69
2005-08-24 12:06 51°26.194 2°39.614 19.3 38 17.5 100980 69
2005-08-24 12:07 51°25.967 2°39.639 21.4 36 17.5 100980 71
2005-08-24 12:08 51°25.746 2°39.647 18.2 36 17.5 101000 71
2005-08-24 12:09 51°25.521 2°39.652 20.4 34 17.5 100980 70
2005-08-24 12:10 51°25.302 2°39.659 17.9 30 17.5 100960 68
2005-08-24 12:11 51°25.07 2°39.665 19 34 17.5 100990 70
2005-08-24 12:12 51°24.845 2°39.681 18.1 36 17.5 100980 69
2005-08-24 12:13 51°24.633 2°39.725 19.5 48 17.5 100970 68
2005-08-24 12:14 51°24.407 2°39.81 19.3 51 17.5 100980 70
2005-08-24 12:15 51°24.192 2°39.882 19 52 17.5 100990 69
2005-08-24 12:16 51°23.961 2°39.951 18.3 44 17.6 100980 70
2005-08-24 12:17 51°23.746 2°40.013 19.7 38 17.6 100990 70
2005-08-24 12:18 51°23.516 2°40.078 18.3 39 17.5 100980 69
2005-08-24 12:19 51°23.293 2°40.142 16.5 42 17.5 100980 69
2005-08-24 12:20 51°23.073 2°40.207 20.3 50 17.6 100980 71
2005-08-24 12:21 51°22.855 2°40.265 17.3 41 17.6 101000 70
2005-08-24 12:22 51°22.639 2°40.323 19.9 53 17.6 100960 68
2005-08-24 12:23 51°22.422 2°40.379 17.3 44 17.6 100980 69
2005-08-24 12:24 51°22.206 2°40.436 16.2 42 17.6 100950 68
2005-08-24 12:25 51°21.989 2°40.496 19.8 39 17.7 100990 70
2005-08-24 12:26 51°21.773 2°40.555 20.1 49 17.6 100970 69
2005-08-24 12:27 51°21.558 2°40.615 17.9 39 17.7 100960 70
2005-08-24 12:28 51°21.335 2°40.68 20.6 42 17.7 100980 70
2005-08-24 12:29 51°21.115 2°40.746 17.4 37 17.7 100960 69
2005-08-24 12:30 51°20.903 2°40.823 17.9 58 17.6 100960 68
2005-08-24 12:31 51°20.723 2°41.025 13 70 17.7 100980 70
2005-08-24 12:32 51°20.604 2°41.3 14 77 17.7 100990 70
2005-08-24 12:33 51°20.498 2°41.595 12.8 83 17.6 100980 68
2005-08-24 12:34 51°20.39 2°41.892 14.8 81 17.6 100990 68
2005-08-24 12:35 51°20.285 2°42.183 15 89 17.7 100990 69
2005-08-24 12:36 51°20.185 2°42.483 15 87 17.7 101010 69
2005-08-24 12:37 51°20.104 2°42.786 13.2 85 17.6 101010 67
2005-08-24 12:38 51°20.03 2°43.099 14.2 87 17.7 101010 68
2005-08-24 12:39 51°19.951 2°43.403 12.7 94 17.7 101020 68
2005-08-24 12:40 51°19.87 2°43.706 11.7 96 17.7 101010 69
2005-08-24 12:41 51°19.792 2°44.017 13.2 87 17.8 101020 70
2005-08-24 12:42 51°19.716 2°44.318 14.8 93 17.7 101010 67
2005-08-24 12:43 51°19.629 2°44.629 13.5 88 17.7 101000 68
2005-08-24 12:44 51°19.542 2°44.947 11.9 89 17.7 101000 68
2005-08-24 12:45 51°19.46 2°45.253 14.8 92 17.8 101010 67
2005-08-24 12:46 51°19.375 2°45.561 11.5 91 17.8 101000 68
2005-08-24 12:47 51°19.284 2°45.875 14.6 90 17.8 101010 68
2005-08-24 12:48 51°19.197 2°46.182 11.3 90 17.8 101000 67
2005-08-24 12:49 51°19.108 2°46.484 14.3 94 17.8 101010 67
2005-08-24 12:50 51°19.017 2°46.787 12 86 17.8 101010 68
2005-08-24 12:51 51°18.929 2°47.091 12.2 91 17.8 101010 68
2005-08-24 12:52 51°18.839 2°47.401 8.9 81 17.8 101020 68
2005-08-24 12:53 51°18.753 2°47.71 11.5 91 17.8 101020 67
2005-08-24 12:54 51°18.666 2°48.027 12.7 84 17.9 101020 69
2005-08-24 12:55 51°18.582 2°48.343 10.7 97 17.8 101000 67
2005-08-24 12:56 51°18.5 2°48.664 11.4 100 17.9 101020 68
2005-08-24 12:57 51°18.412 2°48.98 12.9 85 17.9 101010 68
2005-08-24 12:58 51°18.327 2°49.291 11.9 98 17.9 101010 68
2005-08-24 12:59 51°18.24 2°49.609 12.4 95 17.9 101010 66
2005-08-24 13:00 51°18.15 2°49.922 11.5 93 17.9 101010 66
2005-08-24 13:01 51°18.064 2°50.24 13.3 96 18 101010 68
2005-08-24 13:02 51°17.978 2°50.555 11.1 94 18 101020 69
2005-08-24 13:03 51°17.889 2°50.881 12.3 92 18 101010 68
2005-08-24 13:04 51°17.806 2°51.199 12.8 93 18 101010 67
2005-08-24 13:05 51°17.722 2°51.51 11.3 81 18 101000 66
2005-08-24 13:06 51°17.64 2°51.832 11.4 83 18 100990 66
2005-08-24 13:07 51°17.52 2°52.116 13.9 64 18 100990 68
2005-08-24 13:08 51°17.339 2°52.324 16 51 18 100960 68
2005-08-24 13:09 51°17.149 2°52.492 16.7 53 18 100970 65
2005-08-24 13:10 51°16.944 2°52.62 15.8 36 17.9 100950 63
2005-08-24 13:11 51°16.735 2°52.735 17.1 50 18 100970 64
2005-08-24 13:12 51°16.527 2°52.86 16.8 44 18 100970 66
2005-08-24 13:13 51°16.319 2°52.99 17.8 45 18 100970 66
2005-08-24 13:14 51°16.12 2°53.119 19 43 18 100960 64
2005-08-24 13:15 51°15.913 2°53.253 16.7 43 18 100960 66
2005-08-24 13:16 51°15.712 2°53.38 17.6 56 18 100960 65
2005-08-24 13:17 51°15.504 2°53.511 17.3 44 18 100970 63
2005-08-24 13:18 51°15.3 2°53.584 16.9 42 18 100970 61
2005-08-24 13:19 51°15.11 2°53.756 14.7 54 18 100970 62
2005-08-24 13:20 51°14.942 2°53.981 13.8 63 18 100960 63
2005-08-24 13:21 51°14.788 2°54.213 14.3 63 18.1 100980 62
2005-08-24 13:22 51°14.662 2°54.401 14.8 67 18.1 100970 62
2005-08-24 13:23 51°14.537 2°54.66 9.5 73 18.2 100980 61
2005-08-24 13:24 51°14.417 2°54.931 10.3 77 18.2 100990 63
2005-08-24 13:25 51°14.302 2°55.188 10.9 79 18.3 100990 60
2005-08-24 13:26 51°14.187 2°55.367 6.4 48 18.4 101000 58
2005-08-24 13:27 51°14.074 2°55.462 11.1 56 18.6 101000 56
2005-08-24 13:28 51°13.942 2°55.556 8.4 37 18.6 101000 56
2005-08-24 13:29 51°13.808 2°55.658 10.9 32 18.8 101010 56
2005-08-24 13:30 51°13.71 2°55.794 6.5 64 18.8 100990 54
2005-08-24 13:31 51°13.659 2°55.908 5.8 117 18.8 101000 54
2005-08-24 13:32 51°13.619 2°56.008 3.8 144 18.8 101010 55
2005-08-24 13:33 51°13.602 2°56.083 3.1 91 18.9 101010 55